Time;durP1;ratioP1;P1;durP2;ratioP2;P2;SDS_P1;SDS_P2;PMS_P1;PMS_P2;Temp;Humidity;BMP_temperature;BMP_pressure;BME280_temperature;BME280_humidity;BME280_pressure;Samples;Min_cycle;Max_cycle;Signal;HPM_P1;HPM_P2
2021/12/04 00:02:07;;;;;;;82.45;38.70;;;;;;;;;;5053225;28;20493;-61
2021/12/04 00:04:35;;;;;;;83.07;38.28;;;;;;;;;;5053733;28;20388;-61
2021/12/04 00:07:03;;;;;;;87.85;41.15;;;;;;;;;;5022051;28;20073;-61
2021/12/04 00:09:29;;;;;;;81.80;38.95;;;;;;;;;;5033768;28;20046;-62
2021/12/04 00:12:06;;;;;;;85.32;39.42;;;;;;;;;;5033977;28;20134;-64
2021/12/04 00:14:33;;;;;;;85.18;39.63;;;;;;;;;;5033686;28;20046;-61
2021/12/04 00:16:59;;;;;;;84.68;38.58;;;;;;;;;;5015711;28;20466;-62
2021/12/04 00:19:25;;;;;;;97.00;40.47;;;;;;;;;;4997824;28;20041;-63
2021/12/04 00:21:52;;;;;;;90.30;38.58;;;;;;;;;;5014102;28;20042;-61
2021/12/04 00:24:18;;;;;;;102.88;41.40;;;;;;;;;;4996563;28;20069;-62
2021/12/04 00:26:45;;;;;;;101.25;42.83;;;;;;;;;;5028298;28;20046;-62
2021/12/04 00:29:12;;;;;;;104.70;42.80;;;;;;;;;;5033003;28;20073;-61
2021/12/04 00:31:47;;;;;;;106.45;42.47;;;;;;;;;;5014849;28;20176;-62
2021/12/04 00:34:13;;;;;;;111.88;42.55;;;;;;;;;;5033573;28;20406;-62
2021/12/04 00:50:09;;;;;;;116.85;43.22;;;;;;;;;;5031477;28;20486;-61
2021/12/04 00:52:35;;;;;;;122.40;43.78;;;;;;;;;;5032281;28;20045;-62
2021/12/04 00:55:02;;;;;;;115.47;44.15;;;;;;;;;;5033074;28;20041;-62
2021/12/04 00:57:28;;;;;;;127.45;43.15;;;;;;;;;;5032528;28;20069;-63
2021/12/04 00:59:54;;;;;;;123.70;43.60;;;;;;;;;;5012844;28;20095;-61
2021/12/04 01:02:21;;;;;;;130.68;44.13;;;;;;;;;;5032120;28;20049;-60
2021/12/04 01:04:47;;;;;;;124.55;43.75;;;;;;;;;;5032085;28;20175;-61
2021/12/04 01:07:13;;;;;;;120.20;44.25;;;;;;;;;;5015209;28;20060;-62
2021/12/04 01:09:40;;;;;;;116.55;43.50;;;;;;;;;;5015099;28;20049;-61
2021/12/04 01:12:06;;;;;;;;;;;;;;;;;;5015001;28;20076;-61
2021/12/04 01:14:32;;;;;;;122.25;45.53;;;;;;;;;;5014865;28;19943;-62
2021/12/04 01:16:58;;;;;;;140.18;46.83;;;;;;;;;;5032618;28;20049;-62
2021/12/04 01:19:25;;;;;;;134.25;45.40;;;;;;;;;;5031805;28;20072;-61
2021/12/04 01:21:53;;;;;;;137.48;44.92;;;;;;;;;;5032490;28;20050;-61
2021/12/04 01:24:19;;;;;;;132.13;46.45;;;;;;;;;;5015320;28;20053;-61
2021/12/04 01:26:45;;;;;;;133.90;46.78;;;;;;;;;;5013847;28;20429;-61
2021/12/04 01:29:11;;;;;;;;;;;;;;;;;;4997969;28;20041;-61
2021/12/04 01:31:37;;;;;;;137.05;45.20;;;;;;;;;;5031528;28;20051;-61
2021/12/04 01:34:03;;;;;;;140.95;44.65;;;;;;;;;;5032391;28;20051;-61
2021/12/04 01:36:30;;;;;;;118.93;43.20;;;;;;;;;;5014199;28;20041;-63
2021/12/04 01:38:56;;;;;;;127.28;44.33;;;;;;;;;;5032222;28;20046;-62
2021/12/04 01:41:22;;;;;;;140.07;46.58;;;;;;;;;;5032052;28;20052;-61
2021/12/04 01:43:48;;;;;;;131.48;43.65;;;;;;;;;;5031713;28;20053;-61
2021/12/04 01:46:14;;;;;;;140.23;46.33;;;;;;;;;;5032899;28;20395;-61
2021/12/04 01:48:40;;;;;;;138.10;43.13;;;;;;;;;;5031327;28;20051;-61
2021/12/04 01:51:06;;;;;;;122.50;43.08;;;;;;;;;;5031386;28;20045;-61
2021/12/04 01:53:33;;;;;;;137.82;45.30;;;;;;;;;;5031255;28;20055;-64
2021/12/04 01:55:59;;;;;;;130.20;44.15;;;;;;;;;;5031311;28;20129;-61
2021/12/04 01:58:27;;;;;;;133.27;44.53;;;;;;;;;;5012746;28;20038;-61
2021/12/04 02:00:53;;;;;;;133.50;44.63;;;;;;;;;;5030071;28;20049;-61
2021/12/04 02:03:19;;;;;;;147.15;43.90;;;;;;;;;;5014676;28;20049;-61
2021/12/04 02:05:46;;;;;;;131.15;41.88;;;;;;;;;;5031579;28;20049;-61
2021/12/04 02:08:13;;;;;;;135.25;44.78;;;;;;;;;;5030779;28;20033;-61
2021/12/04 02:10:40;;;;;;;140.00;46.03;;;;;;;;;;5030336;28;20531;-61
2021/12/04 02:13:06;;;;;;;155.60;43.60;;;;;;;;;;5032039;28;20049;-62
2021/12/04 02:15:32;;;;;;;134.13;43.33;;;;;;;;;;5032173;28;20056;-61
2021/12/04 02:18:03;;;;;;;147.52;44.72;;;;;;;;;;5030605;28;20493;-62
2021/12/04 02:20:32;;;;;;;147.38;46.00;;;;;;;;;;5011975;28;20116;-61
2021/12/04 02:22:58;;;;;;;145.50;44.95;;;;;;;;;;5012878;28;20183;-61
2021/12/04 02:25:25;;;;;;;128.82;41.60;;;;;;;;;;5031624;28;20041;-61
2021/12/04 02:27:51;;;;;;;149.02;45.78;;;;;;;;;;5030819;28;20046;-61
2021/12/04 02:30:19;;;;;;;152.35;44.17;;;;;;;;;;5031649;28;20049;-61
2021/12/04 02:32:45;;;;;;;168.90;47.90;;;;;;;;;;5015611;28;20041;-62
2021/12/04 02:35:12;;;;;;;152.27;45.22;;;;;;;;;;5032227;28;20115;-61
2021/12/04 02:37:39;;;;;;;174.93;48.33;;;;;;;;;;5036852;28;20052;-63
2021/12/04 02:40:05;;;;;;;;;;;;;;;;;;5023682;28;20068;-61
2021/12/04 02:42:31;;;;;;;157.90;42.72;;;;;;;;;;5031757;28;20393;-61
2021/12/04 02:45:02;;;;;;;146.10;42.22;;;;;;;;;;5018068;28;20052;-61
2021/12/04 02:47:29;;;;;;;168.98;44.22;;;;;;;;;;5048939;28;20045;-61
2021/12/04 02:49:56;;;;;;;187.73;44.58;;;;;;;;;;5045037;28;20129;-61
2021/12/04 02:52:23;;;;;;;150.13;45.17;;;;;;;;;;5033595;28;20041;-61
2021/12/04 02:54:50;;;;;;;141.32;43.10;;;;;;;;;;5029927;28;20099;-62
2021/12/04 02:57:17;;;;;;;141.68;41.40;;;;;;;;;;5030890;28;20046;-61
2021/12/04 02:59:44;;;;;;;153.27;42.25;;;;;;;;;;5046046;28;20045;-62
2021/12/04 03:02:21;;;;;;;;;;;;;;;;;;5031584;28;20175;-61
2021/12/04 03:04:48;;;;;;;153.05;42.88;;;;;;;;;;5025890;28;19927;-62
2021/12/04 03:07:15;;;;;;;150.27;40.58;;;;;;;;;;5030111;28;20045;-61
2021/12/04 03:09:41;;;;;;;142.20;40.35;;;;;;;;;;5029050;28;20521;-63
2021/12/04 03:12:07;;;;;;;147.45;42.38;;;;;;;;;;5034067;28;20128;-61
2021/12/04 03:14:34;;;;;;;145.13;41.00;;;;;;;;;;5035518;28;20077;-61
2021/12/04 03:17:00;;;;;;;152.80;40.88;;;;;;;;;;5033205;28;20077;-62
2021/12/04 03:19:27;;;;;;;140.23;40.08;;;;;;;;;;5032859;28;20037;-61
2021/12/04 03:21:53;;;;;;;163.00;44.35;;;;;;;;;;4981186;28;20049;-61
2021/12/04 03:24:20;;;;;;;146.20;40.30;;;;;;;;;;5000054;28;20141;-62
2021/12/04 03:26:49;;;;;;;146.88;42.53;;;;;;;;;;5033751;28;20049;-61
2021/12/04 03:29:22;;;;;;;131.43;38.97;;;;;;;;;;5017398;28;20049;-62
2021/12/04 03:42:36;;;;;;;125.35;37.55;;;;;;;;;;4997127;28;20058;-62
2021/12/04 03:45:02;;;;;;;121.97;38.22;;;;;;;;;;5031489;28;20493;-62
2021/12/04 03:47:30;;;;;;;140.65;39.58;;;;;;;;;;5016656;28;20049;-61
2021/12/04 03:49:56;;;;;;;110.75;37.28;;;;;;;;;;5016123;28;20121;-62
2021/12/04 03:52:22;;;;;;;121.77;38.53;;;;;;;;;;5033517;28;20057;-61
2021/12/04 03:54:49;;;;;;;136.65;39.92;;;;;;;;;;5015394;28;20091;-64
2021/12/04 03:57:15;;;;;;;108.00;35.63;;;;;;;;;;5033406;28;20123;-61
2021/12/04 03:59:44;;;;;;;126.13;37.17;;;;;;;;;;5034664;28;20153;-61
2021/12/04 04:02:11;;;;;;;107.07;33.50;;;;;;;;;;5031980;28;20041;-61
2021/12/04 04:04:38;;;;;;;101.35;35.65;;;;;;;;;;5034442;28;20064;-62
2021/12/04 04:07:04;;;;;;;106.82;33.53;;;;;;;;;;5032195;28;20042;-61
2021/12/04 04:09:30;;;;;;;;;;;;;;;;;;5033306;28;20046;-62
2021/12/04 04:11:57;;;;;;;105.80;37.23;;;;;;;;;;5033639;28;19921;-61
2021/12/04 04:14:23;;;;;;;;;;;;;;;;;;5032589;28;20056;-61
2021/12/04 04:16:50;;;;;;;103.50;34.83;;;;;;;;;;5033965;28;19921;-63
2021/12/04 04:19:16;;;;;;;122.93;34.88;;;;;;;;;;5015306;28;20037;-61
2021/12/04 04:21:43;;;;;;;125.45;36.08;;;;;;;;;;5033181;28;20386;-62
2021/12/04 04:24:09;;;;;;;;;;;;;;;;;;5032371;28;20437;-61
2021/12/04 04:26:35;;;;;;;99.80;32.88;;;;;;;;;;5033193;28;19921;-61
2021/12/04 04:29:01;;;;;;;;;;;;;;;;;;5013318;28;20052;-61
2021/12/04 04:31:28;;;;;;;109.07;34.72;;;;;;;;;;5032468;28;19921;-60
2021/12/04 04:34:00;;;;;;;106.88;34.33;;;;;;;;;;5011943;28;20056;-62
2021/12/04 05:14:34;;;;;;;97.72;31.60;;;;;;;;;;5032744;28;20140;-61
2021/12/04 05:20:06;;;;;;;101.22;29.70;;;;;;;;;;5033238;28;20042;-61
2021/12/04 05:22:25;;;;;;;96.60;29.35;;;;;;;;;;5030275;28;20053;-61
2021/12/04 05:24:52;;;;;;;88.72;28.98;;;;;;;;;;5014898;28;20057;-61
2021/12/04 05:27:18;;;;;;;82.95;29.52;;;;;;;;;;5032406;28;20054;-61
2021/12/04 05:29:44;;;;;;;89.63;29.77;;;;;;;;;;5032937;28;20046;-61
2021/12/04 05:32:11;;;;;;;84.53;28.40;;;;;;;;;;5030012;28;20543;-62
2021/12/04 05:34:37;;;;;;;96.70;32.15;;;;;;;;;;5033001;28;20049;-61
2021/12/04 05:37:03;;;;;;;81.68;28.27;;;;;;;;;;5029993;28;20037;-62
2021/12/04 05:39:30;;;;;;;91.03;28.98;;;;;;;;;;5032427;28;20040;-61
2021/12/04 05:41:56;;;;;;;92.38;29.85;;;;;;;;;;5032367;28;20042;-61
2021/12/04 05:44:25;;;;;;;86.05;29.50;;;;;;;;;;5029575;28;20045;-62
2021/12/04 05:46:59;;;;;;;86.50;28.27;;;;;;;;;;5031882;28;20045;-62
2021/12/04 05:49:35;;;;;;;76.57;28.00;;;;;;;;;;5030804;28;20520;-61
2021/12/04 05:57:05;;;;;;;73.80;27.65;;;;;;;;;;5031658;28;20401;-61
2021/12/04 05:59:31;;;;;;;85.85;28.23;;;;;;;;;;5014615;28;20095;-62
2021/12/04 06:01:58;;;;;;;73.78;25.75;;;;;;;;;;5032550;28;20087;-61
2021/12/04 06:04:23;;;;;;;;;;;;;;;;;;5014104;28;20041;-62
2021/12/04 06:06:50;;;;;;;78.60;27.85;;;;;;;;;;5032208;28;20284;-62
2021/12/04 06:09:16;;;;;;;72.72;26.10;;;;;;;;;;5012829;28;20037;-62
2021/12/04 06:11:42;;;;;;;;;;;;;;;;;;5031026;28;20045;-62
2021/12/04 06:14:08;;;;;;;70.10;26.45;;;;;;;;;;5031389;28;19925;-62
2021/12/04 06:16:35;;;;;;;79.15;27.50;;;;;;;;;;5032185;28;20098;-62
2021/12/04 06:24:43;;;;;;;75.38;27.42;;;;;;;;;;5031460;28;20049;-61
2021/12/04 06:27:09;;;;;;;71.70;26.38;;;;;;;;;;5030627;28;20515;-62
2021/12/04 06:29:35;;;;;;;78.40;26.25;;;;;;;;;;5031687;28;20124;-61
2021/12/04 06:32:01;;;;;;;69.25;27.08;;;;;;;;;;5013867;28;20056;-61
2021/12/04 06:34:28;;;;;;;71.88;26.33;;;;;;;;;;5031020;28;20083;-61
2021/12/04 06:36:54;;;;;;;73.80;27.38;;;;;;;;;;5014106;28;20046;-61
2021/12/04 06:39:20;;;;;;;79.35;28.08;;;;;;;;;;5013788;28;20077;-62
2021/12/04 06:41:46;;;;;;;71.70;26.85;;;;;;;;;;5031569;28;20046;-61
2021/12/04 06:44:12;;;;;;;71.60;26.33;;;;;;;;;;5034548;28;20053;-62
2021/12/04 06:46:38;;;;;;;69.50;25.75;;;;;;;;;;5036005;28;20111;-62
2021/12/04 06:49:13;;;;;;;70.60;25.73;;;;;;;;;;5035880;28;20085;-61
2021/12/04 06:51:43;;;;;;;77.07;26.38;;;;;;;;;;5035867;28;20064;-62
2021/12/04 06:54:18;;;;;;;67.10;25.42;;;;;;;;;;5035484;28;20052;-63
2021/12/04 06:56:45;;;;;;;63.45;24.02;;;;;;;;;;5032632;28;20052;-61
2021/12/04 06:59:15;;;;;;;81.43;27.40;;;;;;;;;;5034880;28;20041;-63
2021/12/04 07:01:41;;;;;;;86.60;27.57;;;;;;;;;;5017376;28;20103;-61
2021/12/04 07:04:07;;;;;;;;;;;;;;;;;;5027950;28;20410;-61
2021/12/04 07:06:34;;;;;;;99.47;29.75;;;;;;;;;;5033499;28;20282;-61
2021/12/04 07:09:00;;;;;;;;;;;;;;;;;;5035223;28;20120;-61
2021/12/04 07:11:27;;;;;;;86.90;28.67;;;;;;;;;;5032942;28;19925;-62
2021/12/04 07:13:54;;;;;;;88.47;28.90;;;;;;;;;;5035195;28;20456;-61
2021/12/04 07:16:20;;;;;;;85.80;27.42;;;;;;;;;;5033888;28;20485;-61
2021/12/04 07:18:47;;;;;;;82.85;27.80;;;;;;;;;;5034550;28;20045;-62
2021/12/04 07:21:13;;;;;;;90.82;28.60;;;;;;;;;;5000072;28;20045;-63
2021/12/04 07:23:40;;;;;;;82.45;27.80;;;;;;;;;;5034050;28;20136;-61
2021/12/04 07:26:07;;;;;;;91.38;29.33;;;;;;;;;;5017046;28;20053;-62
2021/12/04 07:28:33;;;;;;;80.95;28.73;;;;;;;;;;5015426;28;20891;-61
2021/12/04 07:30:59;;;;;;;;;;;;;;;;;;5034670;28;20045;-61
2021/12/04 07:33:26;;;;;;;85.10;28.33;;;;;;;;;;5040420;28;20408;-62
2021/12/04 07:35:52;;;;;;;93.57;29.45;;;;;;;;;;5003713;28;20049;-62
2021/12/04 07:38:18;;;;;;;63.17;24.63;;;;;;;;;;5028943;28;20179;-63
2021/12/04 07:40:45;;;;;;;88.30;27.73;;;;;;;;;;5034719;28;20049;-62
2021/12/04 07:43:12;;;;;;;75.95;26.73;;;;;;;;;;5034694;28;20049;-61
2021/12/04 07:45:38;;;;;;;91.80;28.33;;;;;;;;;;5033987;28;20073;-61
2021/12/04 07:48:05;;;;;;;74.55;28.48;;;;;;;;;;5027029;28;20111;-62
2021/12/04 07:50:32;;;;;;;80.20;26.83;;;;;;;;;;5014107;28;20128;-62
2021/12/04 07:52:58;;;;;;;83.45;29.80;;;;;;;;;;5015296;28;20059;-62
2021/12/04 07:55:25;;;;;;;81.07;28.00;;;;;;;;;;5027810;28;20050;-62
2021/12/04 07:57:51;;;;;;;79.72;26.98;;;;;;;;;;5031957;28;20041;-62
2021/12/04 08:00:18;;;;;;;81.40;27.65;;;;;;;;;;5032344;28;20053;-64
2021/12/04 08:02:44;;;;;;;75.18;26.52;;;;;;;;;;5031468;28;20109;-63
2021/12/04 08:05:11;;;;;;;70.15;26.10;;;;;;;;;;5017753;28;20049;-63
2021/12/04 08:07:38;;;;;;;69.13;25.83;;;;;;;;;;5035521;28;20049;-62
2021/12/04 08:10:05;;;;;;;72.75;27.25;;;;;;;;;;5042368;28;20057;-63
2021/12/04 08:12:31;;;;;;;77.10;27.17;;;;;;;;;;5041185;28;20072;-62
2021/12/04 08:14:57;;;;;;;72.80;25.70;;;;;;;;;;5047304;28;20158;-63
2021/12/04 08:17:25;;;;;;;72.63;25.77;;;;;;;;;;5034768;28;20050;-63
2021/12/04 08:19:51;;;;;;;79.05;29.05;;;;;;;;;;5032668;28;20041;-63
2021/12/04 08:22:20;;;;;;;86.00;28.15;;;;;;;;;;5031611;28;20461;-64
2021/12/04 08:24:47;;;;;;;80.88;29.10;;;;;;;;;;4997706;28;20061;-63
2021/12/04 08:27:14;;;;;;;93.43;29.42;;;;;;;;;;5014353;28;20137;-62
2021/12/04 08:29:40;;;;;;;85.10;28.40;;;;;;;;;;5013566;28;20041;-63
2021/12/04 08:32:07;;;;;;;83.50;28.08;;;;;;;;;;5013553;28;20052;-63
2021/12/04 08:34:33;;;;;;;82.90;28.58;;;;;;;;;;5013239;28;20465;-64
2021/12/04 08:36:59;;;;;;;73.50;26.70;;;;;;;;;;5029939;28;20050;-63
2021/12/04 08:39:25;;;;;;;73.07;27.40;;;;;;;;;;5029828;28;20050;-64
2021/12/04 08:41:51;;;;;;;68.28;26.80;;;;;;;;;;5031914;28;20049;-63
2021/12/04 08:44:19;;;;;;;81.15;28.98;;;;;;;;;;5028265;28;20552;-63
2021/12/04 08:46:45;;;;;;;73.25;26.63;;;;;;;;;;5026301;28;20095;-63
2021/12/04 08:49:12;;;;;;;77.43;27.33;;;;;;;;;;5031574;28;20045;-63
2021/12/04 08:51:38;;;;;;;67.28;25.38;;;;;;;;;;5031549;28;20493;-63
2021/12/04 08:54:05;;;;;;;67.50;26.05;;;;;;;;;;5032182;28;20560;-62
2021/12/04 08:56:33;;;;;;;68.50;25.97;;;;;;;;;;5031201;28;20045;-63
2021/12/04 08:58:59;;;;;;;65.85;25.75;;;;;;;;;;5031161;28;20045;-63
2021/12/04 09:01:26;;;;;;;56.33;25.08;;;;;;;;;;5013900;28;20061;-65
2021/12/04 09:03:58;;;;;;;59.47;24.20;;;;;;;;;;5013622;28;20041;-63
2021/12/04 09:06:24;;;;;;;59.53;25.15;;;;;;;;;;5014125;28;20049;-63
2021/12/04 09:08:50;;;;;;;56.40;23.52;;;;;;;;;;5012977;28;20361;-61
2021/12/04 09:11:24;;;;;;;59.92;24.10;;;;;;;;;;5031071;28;20041;-61
2021/12/04 09:13:51;;;;;;;60.07;23.97;;;;;;;;;;5030451;28;20132;-61
2021/12/04 09:16:18;;;;;;;49.05;22.45;;;;;;;;;;5029033;28;20045;-63
2021/12/04 09:18:44;;;;;;;56.37;22.80;;;;;;;;;;5029748;28;20053;-63
2021/12/04 09:21:11;;;;;;;54.08;23.75;;;;;;;;;;5014566;28;20052;-62
2021/12/04 09:23:39;;;;;;;;;;;;;;;;;;5014528;28;20144;-63
2021/12/04 09:26:09;;;;;;;45.08;19.33;;;;;;;;;;5044583;28;19927;-62
2021/12/04 09:31:57;;;;;;;47.97;19.67;;;;;;;;;;4972519;28;20130;-63
2021/12/04 10:02:11;;;;;;;32.53;17.38;;;;;;;;;;5005182;28;20196;-62
2021/12/04 10:21:55;;;;;;;35.15;17.00;;;;;;;;;;4965756;28;20069;-68
2021/12/04 10:32:02;;;;;;;33.15;17.67;;;;;;;;;;4987231;28;20054;-63
2021/12/04 10:33:14;;;;;;;33.05;17.63;;;;;;;;;;4983693;28;20054;-62
2021/12/04 10:35:40;;;;;;;30.60;17.25;;;;;;;;;;5024125;28;20046;-63
2021/12/04 10:38:08;;;;;;;;;;;;;;;;;;5028235;28;20042;-61
2021/12/04 10:40:39;;;;;;;33.55;17.92;;;;;;;;;;5026021;28;19928;-62
2021/12/04 10:43:07;;;;;;;36.20;19.05;;;;;;;;;;5030128;28;20061;-62
2021/12/04 10:45:38;;;;;;;31.30;17.73;;;;;;;;;;5029799;28;20077;-62
2021/12/04 10:48:08;;;;;;;30.08;16.83;;;;;;;;;;5025241;28;20052;-62
2021/12/04 10:50:57;;;;;;;34.15;17.95;;;;;;;;;;5021844;28;20172;-62
2021/12/04 10:53:27;;;;;;;36.35;17.60;;;;;;;;;;5012558;28;20057;-63
2021/12/04 11:03:46;;;;;;;37.08;18.77;;;;;;;;;;5027729;28;20049;-64
2021/12/04 11:22:48;;;;;;;31.77;17.60;;;;;;;;;;5028758;28;20049;-62
2021/12/04 11:28:14;;;;;;;33.92;17.70;;;;;;;;;;5012334;28;20049;-63
2021/12/04 11:41:42;;;;;;;30.90;17.30;;;;;;;;;;5032363;28;20049;-63
2021/12/04 11:44:14;;;;;;;34.03;17.77;;;;;;;;;;5030999;28;20433;-63
2021/12/04 11:46:44;;;;;;;30.95;16.65;;;;;;;;;;5005838;28;20057;-63
2021/12/04 11:49:18;;;;;;;35.03;17.13;;;;;;;;;;5028244;28;20119;-63
2021/12/04 11:51:57;;;;;;;33.97;17.65;;;;;;;;;;5032442;28;20048;-63
2021/12/04 11:54:31;;;;;;;29.75;16.15;;;;;;;;;;5033051;28;20501;-63
2021/12/04 11:57:01;;;;;;;30.48;16.27;;;;;;;;;;5031055;28;20443;-63
2021/12/04 11:59:28;;;;;;;29.58;16.40;;;;;;;;;;5030045;28;20049;-63
2021/12/04 12:01:55;;;;;;;34.55;16.75;;;;;;;;;;5030949;28;20053;-64
2021/12/04 12:04:31;;;;;;;32.25;16.85;;;;;;;;;;5013844;28;20052;-63
2021/12/04 12:06:57;;;;;;;27.38;15.02;;;;;;;;;;5028337;28;20100;-63
2021/12/04 12:09:27;;;;;;;29.33;14.95;;;;;;;;;;5027958;28;20650;-64
2021/12/04 12:12:00;;;;;;;33.10;15.73;;;;;;;;;;5030465;28;20048;-64
2021/12/04 12:14:39;;;;;;;31.83;16.63;;;;;;;;;;5032375;28;20049;-63
2021/12/04 12:17:05;;;;;;;30.35;15.27;;;;;;;;;;5013494;28;20053;-63
2021/12/04 12:19:38;;;;;;;31.17;16.05;;;;;;;;;;5032047;28;20192;-63
2021/12/04 12:24:37;;;;;;;32.65;16.58;;;;;;;;;;5003552;28;20096;-64
2021/12/04 12:33:56;;;;;;;39.83;19.20;;;;;;;;;;4992742;28;20058;-63
2021/12/04 12:36:09;;;;;;;37.78;18.60;;;;;;;;;;4999143;28;20054;-62
2021/12/04 12:38:45;;;;;;;39.20;19.27;;;;;;;;;;5011270;28;20490;-63
2021/12/04 12:41:29;;;;;;;39.55;20.13;;;;;;;;;;4995336;28;20412;-63
2021/12/04 12:44:05;;;;;;;42.50;20.08;;;;;;;;;;5026418;28;20048;-64
2021/12/04 12:46:40;;;;;;;46.40;21.63;;;;;;;;;;5031577;28;20482;-63
2021/12/04 12:49:17;;;;;;;46.97;19.75;;;;;;;;;;5013540;28;20072;-62
2021/12/04 12:51:43;;;;;;;;;;;;;;;;;;5015067;28;20067;-63
2021/12/04 12:54:09;;;;;;;43.33;19.48;;;;;;;;;;5029659;28;19990;-63
2021/12/04 12:56:37;;;;;;;48.60;20.70;;;;;;;;;;5030724;28;20045;-63
2021/12/04 12:59:19;;;;;;;43.95;20.83;;;;;;;;;;5031127;28;20042;-63
2021/12/04 13:13:22;;;;;;;49.53;22.08;;;;;;;;;;5030698;28;20045;-63
2021/12/04 13:15:48;;;;;;;47.97;21.77;;;;;;;;;;5030573;28;20120;-62
2021/12/04 13:18:17;;;;;;;45.38;20.95;;;;;;;;;;5030415;28;20072;-62
2021/12/04 13:20:44;;;;;;;49.78;22.30;;;;;;;;;;5012978;28;20049;-62
2021/12/04 13:23:12;;;;;;;50.63;23.35;;;;;;;;;;5030778;28;20175;-62
2021/12/04 13:25:39;;;;;;;54.42;24.75;;;;;;;;;;5030246;28;20053;-62
2021/12/04 13:30:32;;;;;;;49.20;22.20;;;;;;;;;;5030216;28;20041;-62
2021/12/04 13:32:58;;;;;;;;;;;;;;;;;;5013740;28;20133;-65
2021/12/04 13:35:24;;;;;;;58.92;25.73;;;;;;;;;;5030829;28;19960;-63
2021/12/04 13:37:50;;;;;;;;;;;;;;;;;;5031070;28;20497;-63
2021/12/04 13:40:19;;;;;;;52.17;24.45;;;;;;;;;;5029757;28;19967;-63
2021/12/04 13:42:45;;;;;;;65.78;29.02;;;;;;;;;;5027694;28;20044;-62
2021/12/04 13:45:12;;;;;;;58.25;26.00;;;;;;;;;;5030683;28;20060;-63
2021/12/04 13:47:38;;;;;;;59.25;27.17;;;;;;;;;;5030725;28;20045;-62
2021/12/04 13:50:08;;;;;;;61.38;26.52;;;;;;;;;;5030391;28;20102;-64
2021/12/04 13:52:34;;;;;;;61.00;25.98;;;;;;;;;;5031241;28;20045;-62
2021/12/04 13:55:05;;;;;;;66.25;28.88;;;;;;;;;;5031059;28;20042;-62
2021/12/04 13:57:31;;;;;;;57.30;26.67;;;;;;;;;;5031436;28;20490;-62
2021/12/04 14:00:00;;;;;;;57.10;27.00;;;;;;;;;;5030593;28;20077;-62
2021/12/04 14:02:28;;;;;;;59.97;25.98;;;;;;;;;;5030929;28;20045;-62
2021/12/04 14:04:56;;;;;;;63.50;27.02;;;;;;;;;;5030253;28;20489;-62
2021/12/04 14:07:22;;;;;;;63.53;26.77;;;;;;;;;;5026795;28;20152;-63
2021/12/04 14:09:48;;;;;;;67.60;27.15;;;;;;;;;;5027948;28;20044;-63
2021/12/04 14:12:14;;;;;;;68.07;27.58;;;;;;;;;;5029173;28;20045;-63
2021/12/04 14:14:40;;;;;;;65.13;27.65;;;;;;;;;;5029456;28;20111;-63
2021/12/04 14:17:08;;;;;;;75.28;35.97;;;;;;;;;;5024035;28;20494;-65
2021/12/04 14:19:34;;;;;;;69.47;30.88;;;;;;;;;;5028136;28;20042;-63
2021/12/04 14:22:03;;;;;;;71.75;27.58;;;;;;;;;;5029448;28;20037;-63
2021/12/04 14:24:35;;;;;;;64.05;27.08;;;;;;;;;;5025354;28;20085;-62
2021/12/04 14:27:02;;;;;;;71.07;27.58;;;;;;;;;;5029701;28;20099;-63
2021/12/04 14:29:32;;;;;;;67.00;27.38;;;;;;;;;;5028478;28;20502;-63
2021/12/04 14:31:58;;;;;;;60.22;26.50;;;;;;;;;;5026717;28;20068;-63
2021/12/04 14:34:25;;;;;;;63.55;28.38;;;;;;;;;;5012025;28;20162;-63
2021/12/04 14:37:10;;;;;;;62.65;26.17;;;;;;;;;;5011553;28;20061;-62
2021/12/04 14:39:37;;;;;;;69.10;29.27;;;;;;;;;;5030162;28;20497;-63
2021/12/04 14:42:14;;;;;;;71.40;30.08;;;;;;;;;;5030108;28;20387;-63
2021/12/04 14:44:47;;;;;;;73.00;30.42;;;;;;;;;;5012892;28;20129;-63
2021/12/04 14:47:14;;;;;;;73.38;32.10;;;;;;;;;;5028067;28;20041;-63
2021/12/04 14:49:42;;;;;;;72.80;31.55;;;;;;;;;;5031082;28;20497;-63
2021/12/04 14:52:16;;;;;;;74.15;30.48;;;;;;;;;;5030863;28;20045;-65
2021/12/04 14:54:42;;;;;;;74.30;30.10;;;;;;;;;;5031632;28;20132;-63
2021/12/04 14:57:16;;;;;;;69.78;30.60;;;;;;;;;;5031289;28;20060;-63
2021/12/04 14:59:42;;;;;;;73.07;28.77;;;;;;;;;;5030370;28;20180;-63
2021/12/04 15:02:19;;;;;;;75.00;32.38;;;;;;;;;;5030833;28;20052;-63
2021/12/04 15:04:45;;;;;;;70.55;29.42;;;;;;;;;;5032266;28;20084;-62
2021/12/04 15:07:28;;;;;;;69.50;29.38;;;;;;;;;;5016984;28;20049;-65
2021/12/04 15:09:54;;;;;;;83.20;31.15;;;;;;;;;;5032380;28;20046;-63
2021/12/04 15:12:28;;;;;;;68.25;30.15;;;;;;;;;;5031273;28;20398;-63
2021/12/04 15:14:55;;;;;;;74.63;30.45;;;;;;;;;;5018403;28;20405;-62
2021/12/04 15:17:21;;;;;;;80.05;30.77;;;;;;;;;;4998558;28;20045;-62
2021/12/04 15:19:48;;;;;;;76.43;30.63;;;;;;;;;;5034953;28;20048;-62
2021/12/04 15:22:19;;;;;;;80.50;32.30;;;;;;;;;;5014395;28;20046;-65
2021/12/04 15:24:47;;;;;;;85.72;34.13;;;;;;;;;;5032246;28;20053;-63
2021/12/04 15:27:18;;;;;;;88.43;33.55;;;;;;;;;;5034611;28;20044;-64
2021/12/04 15:29:48;;;;;;;90.22;36.95;;;;;;;;;;5033845;28;20046;-63
2021/12/04 15:32:16;;;;;;;96.65;36.40;;;;;;;;;;5029557;28;20520;-65
2021/12/04 15:35:09;;;;;;;88.75;36.38;;;;;;;;;;5035159;28;20042;-63
2021/12/04 15:37:36;;;;;;;93.25;36.00;;;;;;;;;;5033456;28;20633;-63
2021/12/04 15:40:05;;;;;;;87.13;36.00;;;;;;;;;;5034791;28;20041;-63
2021/12/04 15:42:42;;;;;;;94.20;35.53;;;;;;;;;;5016069;28;20045;-62
2021/12/04 15:45:39;;;;;;;99.63;37.60;;;;;;;;;;5016400;28;20041;-62
2021/12/04 15:53:51;;;;;;;99.97;36.83;;;;;;;;;;5033434;28;19972;-63
2021/12/04 15:56:26;;;;;;;109.80;37.40;;;;;;;;;;5033785;28;20045;-64
2021/12/04 15:58:52;;;;;;;103.50;38.17;;;;;;;;;;5033796;28;20124;-63
2021/12/04 16:01:19;;;;;;;99.97;37.00;;;;;;;;;;5033559;28;20072;-65
2021/12/04 16:03:48;;;;;;;93.75;34.67;;;;;;;;;;5016421;28;20041;-64
2021/12/04 16:06:14;;;;;;;100.60;36.53;;;;;;;;;;5016606;28;20099;-64
2021/12/04 16:08:41;;;;;;;90.57;34.90;;;;;;;;;;5032790;28;20045;-64
2021/12/04 16:11:08;;;;;;;97.05;37.00;;;;;;;;;;5015800;28;20135;-64
2021/12/04 16:13:39;;;;;;;115.80;38.35;;;;;;;;;;5033133;28;20056;-64
2021/12/04 16:16:11;;;;;;;111.00;39.17;;;;;;;;;;5033315;28;20045;-64
2021/12/04 16:18:38;;;;;;;103.55;37.80;;;;;;;;;;5033474;28;20046;-64
2021/12/04 16:21:04;;;;;;;103.25;38.47;;;;;;;;;;5033769;28;20128;-65
2021/12/04 16:23:32;;;;;;;118.45;43.88;;;;;;;;;;5033156;28;20135;-65
2021/12/04 16:26:00;;;;;;;108.50;41.60;;;;;;;;;;5012340;28;20061;-65
2021/12/04 16:28:55;;;;;;;105.70;39.78;;;;;;;;;;5010547;28;20148;-66
2021/12/04 16:36:18;;;;;;;114.03;40.53;;;;;;;;;;5031431;28;20064;-65
2021/12/04 16:38:46;;;;;;;127.32;40.70;;;;;;;;;;5016009;28;20061;-65
2021/12/04 16:41:14;;;;;;;115.20;41.92;;;;;;;;;;5013294;28;20049;-66
2021/12/04 16:43:44;;;;;;;118.32;41.03;;;;;;;;;;5012790;28;20050;-65
2021/12/04 16:46:15;;;;;;;112.72;36.88;;;;;;;;;;5011937;28;20056;-66
2021/12/04 16:48:48;;;;;;;121.93;39.65;;;;;;;;;;5016130;28;20108;-66
2021/12/04 16:56:36;;;;;;;114.63;43.10;;;;;;;;;;5024965;28;20085;-66
2021/12/04 16:59:05;;;;;;;113.28;41.28;;;;;;;;;;5013638;28;20124;-66
2021/12/04 17:01:32;;;;;;;105.03;40.22;;;;;;;;;;5011117;28;20054;-66
2021/12/04 17:03:58;;;;;;;109.72;39.08;;;;;;;;;;5013392;28;20042;-67
2021/12/04 17:06:24;;;;;;;97.75;37.60;;;;;;;;;;5013302;28;20088;-68
2021/12/04 17:08:50;;;;;;;114.97;41.20;;;;;;;;;;5013107;28;20433;-66
2021/12/04 17:11:17;;;;;;;121.88;41.45;;;;;;;;;;5013064;28;20041;-66
2021/12/04 17:13:43;;;;;;;105.88;39.25;;;;;;;;;;5012609;28;20077;-65
2021/12/04 17:16:12;;;;;;;114.50;41.75;;;;;;;;;;5012983;28;20453;-65
2021/12/04 17:18:46;;;;;;;118.15;39.28;;;;;;;;;;5011239;28;20545;-65
2021/12/04 17:21:13;;;;;;;127.85;39.85;;;;;;;;;;5013158;28;20054;-65
2021/12/04 17:23:39;;;;;;;129.60;40.30;;;;;;;;;;5011415;28;20053;-64
2021/12/04 17:26:05;;;;;;;117.28;40.22;;;;;;;;;;5030016;28;20467;-64
2021/12/04 17:28:35;;;;;;;129.40;43.70;;;;;;;;;;5031946;28;20053;-64
2021/12/04 17:31:03;;;;;;;104.60;38.63;;;;;;;;;;5032132;28;20045;-63
2021/12/04 17:33:29;;;;;;;93.55;39.97;;;;;;;;;;5032160;28;20049;-65
2021/12/04 17:35:55;;;;;;;107.45;40.90;;;;;;;;;;5032163;28;20555;-64
2021/12/04 17:38:21;;;;;;;125.97;42.20;;;;;;;;;;5032276;28;20042;-64
2021/12/04 17:40:48;;;;;;;105.03;43.13;;;;;;;;;;5014090;28;20401;-64
2021/12/04 17:43:14;;;;;;;97.38;36.58;;;;;;;;;;5032307;28;20050;-64
2021/12/04 17:45:42;;;;;;;97.20;38.45;;;;;;;;;;5011344;28;20075;-65
2021/12/04 17:48:09;;;;;;;104.80;38.67;;;;;;;;;;5029006;28;20119;-64
2021/12/04 17:50:44;;;;;;;101.32;36.92;;;;;;;;;;5031204;28;20111;-65
2021/12/04 17:53:11;;;;;;;102.95;40.25;;;;;;;;;;5012878;28;20050;-64